sensor_id;sensor_type;location;lat;lon;timestamp;P1;durP1;ratioP1;P2;durP2;ratioP2
5953;SDS011;3002;42.642;24.812;2022-12-07T00:01:23;31.00;;;7.73;;
5953;SDS011;3002;42.642;24.812;2022-12-07T00:03:52;23.60;;;7.07;;
5953;SDS011;3002;42.642;24.812;2022-12-07T00:06:20;18.50;;;5.57;;
5953;SDS011;3002;42.642;24.812;2022-12-07T00:08:46;31.97;;;8.37;;
5953;SDS011;3002;42.642;24.812;2022-12-07T00:11:13;18.50;;;6.90;;
5953;SDS011;3002;42.642;24.812;2022-12-07T00:13:41;18.90;;;6.77;;
5953;SDS011;3002;42.642;24.812;2022-12-07T00:16:07;15.33;;;6.40;;
5953;SDS011;3002;42.642;24.812;2022-12-07T00:18:35;16.90;;;6.60;;
5953;SDS011;3002;42.642;24.812;2022-12-07T00:21:02;14.77;;;6.20;;
5953;SDS011;3002;42.642;24.812;2022-12-07T00:23:33;28.07;;;7.57;;
5953;SDS011;3002;42.642;24.812;2022-12-07T00:26:03;27.83;;;6.30;;
5953;SDS011;3002;42.642;24.812;2022-12-07T00:28:32;16.93;;;6.30;;
5953;SDS011;3002;42.642;24.812;2022-12-07T00:31:02;15.13;;;6.23;;
5953;SDS011;3002;42.642;24.812;2022-12-07T00:33:29;14.03;;;6.30;;
5953;SDS011;3002;42.642;24.812;2022-12-07T00:35:55;20.20;;;4.90;;
5953;SDS011;3002;42.642;24.812;2022-12-07T00:38:21;7.87;;;4.00;;
5953;SDS011;3002;42.642;24.812;2022-12-07T00:40:54;15.50;;;6.50;;
5953;SDS011;3002;42.642;24.812;2022-12-07T00:43:27;18.40;;;4.70;;
5953;SDS011;3002;42.642;24.812;2022-12-07T00:45:53;20.47;;;5.67;;
5953;SDS011;3002;42.642;24.812;2022-12-07T00:48:19;20.03;;;5.80;;
5953;SDS011;3002;42.642;24.812;2022-12-07T00:50:46;15.40;;;6.07;;
5953;SDS011;3002;42.642;24.812;2022-12-07T00:53:12;17.43;;;5.80;;
5953;SDS011;3002;42.642;24.812;2022-12-07T00:55:38;14.77;;;4.03;;
5953;SDS011;3002;42.642;24.812;2022-12-07T00:58:04;14.93;;;5.07;;
5953;SDS011;3002;42.642;24.812;2022-12-07T01:00:29;17.37;;;5.57;;
5953;SDS011;3002;42.642;24.812;2022-12-07T01:02:55;16.77;;;5.10;;
5953;SDS011;3002;42.642;24.812;2022-12-07T01:05:20;16.00;;;5.03;;
5953;SDS011;3002;42.642;24.812;2022-12-07T01:07:46;19.33;;;6.63;;
5953;SDS011;3002;42.642;24.812;2022-12-07T01:10:12;16.90;;;5.20;;
5953;SDS011;3002;42.642;24.812;2022-12-07T01:12:38;13.30;;;4.20;;
5953;SDS011;3002;42.642;24.812;2022-12-07T01:15:04;16.80;;;5.23;;
5953;SDS011;3002;42.642;24.812;2022-12-07T01:17:30;20.83;;;5.23;;
5953;SDS011;3002;42.642;24.812;2022-12-07T01:19:56;17.07;;;4.67;;
5953;SDS011;3002;42.642;24.812;2022-12-07T01:22:21;8.30;;;2.90;;
5953;SDS011;3002;42.642;24.812;2022-12-07T01:24:47;19.63;;;5.20;;
5953;SDS011;3002;42.642;24.812;2022-12-07T01:27:13;24.83;;;5.90;;
5953;SDS011;3002;42.642;24.812;2022-12-07T01:29:39;18.47;;;4.43;;
5953;SDS011;3002;42.642;24.812;2022-12-07T01:32:04;17.07;;;4.90;;
5953;SDS011;3002;42.642;24.812;2022-12-07T01:34:30;18.23;;;5.07;;
5953;SDS011;3002;42.642;24.812;2022-12-07T01:36:55;13.20;;;4.80;;
5953;SDS011;3002;42.642;24.812;2022-12-07T01:39:21;22.07;;;5.20;;
5953;SDS011;3002;42.642;24.812;2022-12-07T01:41:46;16.43;;;5.57;;
5953;SDS011;3002;42.642;24.812;2022-12-07T01:44:17;21.80;;;5.97;;
5953;SDS011;3002;42.642;24.812;2022-12-07T01:46:44;15.40;;;5.10;;
5953;SDS011;3002;42.642;24.812;2022-12-07T01:52:01;17.33;;;5.33;;
5953;SDS011;3002;42.642;24.812;2022-12-07T01:54:49;21.53;;;7.13;;
5953;SDS011;3002;42.642;24.812;2022-12-07T01:57:18;18.77;;;6.07;;
5953;SDS011;3002;42.642;24.812;2022-12-07T01:59:45;13.60;;;5.07;;
5953;SDS011;3002;42.642;24.812;2022-12-07T02:02:18;20.50;;;4.63;;
5953;SDS011;3002;42.642;24.812;2022-12-07T02:04:57;18.80;;;5.43;;
5953;SDS011;3002;42.642;24.812;2022-12-07T02:07:24;15.87;;;4.57;;
5953;SDS011;3002;42.642;24.812;2022-12-07T02:09:51;11.43;;;3.27;;
5953;SDS011;3002;42.642;24.812;2022-12-07T02:12:17;16.90;;;3.97;;
5953;SDS011;3002;42.642;24.812;2022-12-07T02:14:43;9.27;;;2.87;;
5953;SDS011;3002;42.642;24.812;2022-12-07T02:27:37;14.17;;;3.60;;
5953;SDS011;3002;42.642;24.812;2022-12-07T02:30:19;13.60;;;4.00;;
5953;SDS011;3002;42.642;24.812;2022-12-07T02:33:03;18.23;;;3.60;;
5953;SDS011;3002;42.642;24.812;2022-12-07T02:35:32;16.97;;;5.20;;
5953;SDS011;3002;42.642;24.812;2022-12-07T02:40:32;15.00;;;4.00;;
5953;SDS011;3002;42.642;24.812;2022-12-07T02:43:04;16.10;;;4.10;;
5953;SDS011;3002;42.642;24.812;2022-12-07T02:45:44;29.13;;;4.70;;
5953;SDS011;3002;42.642;24.812;2022-12-07T02:48:12;12.23;;;3.50;;
5953;SDS011;3002;42.642;24.812;2022-12-07T02:50:59;11.93;;;4.67;;
5953;SDS011;3002;42.642;24.812;2022-12-07T02:53:58;17.00;;;3.60;;
5953;SDS011;3002;42.642;24.812;2022-12-07T02:58:54;11.03;;;2.77;;
5953;SDS011;3002;42.642;24.812;2022-12-07T03:04:25;15.30;;;4.17;;
5953;SDS011;3002;42.642;24.812;2022-12-07T03:07:05;7.70;;;2.50;;
5953;SDS011;3002;42.642;24.812;2022-12-07T03:12:17;9.23;;;2.73;;
5953;SDS011;3002;42.642;24.812;2022-12-07T03:14:49;18.50;;;5.60;;
5953;SDS011;3002;42.642;24.812;2022-12-07T03:17:37;21.17;;;7.60;;
5953;SDS011;3002;42.642;24.812;2022-12-07T03:20:06;23.23;;;5.17;;
5953;SDS011;3002;42.642;24.812;2022-12-07T03:22:35;17.80;;;4.30;;
5953;SDS011;3002;42.642;24.812;2022-12-07T03:25:04;11.67;;;3.80;;
5953;SDS011;3002;42.642;24.812;2022-12-07T03:27:36;19.57;;;5.70;;
5953;SDS011;3002;42.642;24.812;2022-12-07T03:30:10;14.97;;;4.43;;
5953;SDS011;3002;42.642;24.812;2022-12-07T03:32:44;14.90;;;4.20;;
5953;SDS011;3002;42.642;24.812;2022-12-07T03:35:18;11.50;;;3.20;;
5953;SDS011;3002;42.642;24.812;2022-12-07T03:38:25;14.87;;;4.27;;
5953;SDS011;3002;42.642;24.812;2022-12-07T03:43:15;22.00;;;5.10;;
5953;SDS011;3002;42.642;24.812;2022-12-07T03:45:42;10.93;;;4.17;;
5953;SDS011;3002;42.642;24.812;2022-12-07T03:48:26;10.50;;;3.50;;
5953;SDS011;3002;42.642;24.812;2022-12-07T03:51:20;15.83;;;4.87;;
5953;SDS011;3002;42.642;24.812;2022-12-07T03:56:50;21.83;;;7.50;;
5953;SDS011;3002;42.642;24.812;2022-12-07T03:59:18;14.93;;;5.13;;
5953;SDS011;3002;42.642;24.812;2022-12-07T04:01:51;15.97;;;5.40;;
5953;SDS011;3002;42.642;24.812;2022-12-07T04:04:21;22.17;;;5.77;;
5953;SDS011;3002;42.642;24.812;2022-12-07T04:06:48;11.73;;;4.53;;
5953;SDS011;3002;42.642;24.812;2022-12-07T04:09:13;16.60;;;5.10;;
5953;SDS011;3002;42.642;24.812;2022-12-07T04:11:39;18.80;;;6.07;;
5953;SDS011;3002;42.642;24.812;2022-12-07T04:14:05;13.93;;;4.73;;
5953;SDS011;3002;42.642;24.812;2022-12-07T04:16:43;14.70;;;6.13;;
5953;SDS011;3002;42.642;24.812;2022-12-07T04:19:10;20.37;;;5.93;;
5953;SDS011;3002;42.642;24.812;2022-12-07T04:21:36;31.70;;;7.33;;
5953;SDS011;3002;42.642;24.812;2022-12-07T04:24:01;18.90;;;4.33;;
5953;SDS011;3002;42.642;24.812;2022-12-07T04:26:27;41.50;;;8.13;;
5953;SDS011;3002;42.642;24.812;2022-12-07T04:28:52;17.77;;;5.53;;
5953;SDS011;3002;42.642;24.812;2022-12-07T04:31:18;18.70;;;5.83;;
5953;SDS011;3002;42.642;24.812;2022-12-07T04:33:43;18.20;;;5.33;;
5953;SDS011;3002;42.642;24.812;2022-12-07T04:36:09;19.40;;;6.13;;
5953;SDS011;3002;42.642;24.812;2022-12-07T04:38:35;20.57;;;7.27;;
5953;SDS011;3002;42.642;24.812;2022-12-07T04:41:09;21.90;;;5.47;;
5953;SDS011;3002;42.642;24.812;2022-12-07T04:43:35;25.23;;;7.10;;
5953;SDS011;3002;42.642;24.812;2022-12-07T04:46:01;19.87;;;6.27;;
5953;SDS011;3002;42.642;24.812;2022-12-07T04:48:27;11.27;;;3.60;;
5953;SDS011;3002;42.642;24.812;2022-12-07T04:50:53;14.03;;;4.43;;
5953;SDS011;3002;42.642;24.812;2022-12-07T04:53:18;18.13;;;5.30;;
5953;SDS011;3002;42.642;24.812;2022-12-07T04:55:44;13.47;;;3.57;;
5953;SDS011;3002;42.642;24.812;2022-12-07T04:58:11;15.70;;;4.80;;
5953;SDS011;3002;42.642;24.812;2022-12-07T05:00:37;17.30;;;4.70;;
5953;SDS011;3002;42.642;24.812;2022-12-07T05:03:03;15.60;;;5.27;;
5953;SDS011;3002;42.642;24.812;2022-12-07T05:05:28;20.30;;;5.60;;
5953;SDS011;3002;42.642;24.812;2022-12-07T05:07:54;18.20;;;6.13;;
5953;SDS011;3002;42.642;24.812;2022-12-07T05:10:19;22.90;;;7.40;;
5953;SDS011;3002;42.642;24.812;2022-12-07T05:12:45;24.27;;;7.50;;
5953;SDS011;3002;42.642;24.812;2022-12-07T05:15:11;30.57;;;8.90;;
5953;SDS011;3002;42.642;24.812;2022-12-07T05:17:37;14.73;;;5.40;;
5953;SDS011;3002;42.642;24.812;2022-12-07T05:20:03;24.60;;;7.07;;
5953;SDS011;3002;42.642;24.812;2022-12-07T05:22:29;19.23;;;6.20;;
5953;SDS011;3002;42.642;24.812;2022-12-07T05:24:55;23.87;;;6.37;;
5953;SDS011;3002;42.642;24.812;2022-12-07T05:27:21;11.77;;;4.80;;
5953;SDS011;3002;42.642;24.812;2022-12-07T05:29:46;18.10;;;5.60;;
5953;SDS011;3002;42.642;24.812;2022-12-07T05:32:12;15.43;;;4.50;;
5953;SDS011;3002;42.642;24.812;2022-12-07T05:34:37;16.90;;;6.10;;
5953;SDS011;3002;42.642;24.812;2022-12-07T05:37:03;14.83;;;4.60;;
5953;SDS011;3002;42.642;24.812;2022-12-07T05:39:28;15.33;;;4.27;;
5953;SDS011;3002;42.642;24.812;2022-12-07T05:41:54;23.17;;;5.80;;
5953;SDS011;3002;42.642;24.812;2022-12-07T05:44:41;21.73;;;5.17;;
5953;SDS011;3002;42.642;24.812;2022-12-07T05:47:11;15.53;;;5.17;;
5953;SDS011;3002;42.642;24.812;2022-12-07T05:49:37;11.50;;;4.90;;
5953;SDS011;3002;42.642;24.812;2022-12-07T05:52:04;17.53;;;5.33;;
5953;SDS011;3002;42.642;24.812;2022-12-07T05:54:30;20.13;;;5.60;;
5953;SDS011;3002;42.642;24.812;2022-12-07T05:56:55;19.70;;;4.77;;
5953;SDS011;3002;42.642;24.812;2022-12-07T05:59:21;12.47;;;3.97;;
5953;SDS011;3002;42.642;24.812;2022-12-07T06:01:54;25.57;;;6.00;;
5953;SDS011;3002;42.642;24.812;2022-12-07T06:04:24;14.77;;;3.53;;
5953;SDS011;3002;42.642;24.812;2022-12-07T06:06:51;26.70;;;6.20;;
5953;SDS011;3002;42.642;24.812;2022-12-07T06:09:19;16.53;;;5.10;;
5953;SDS011;3002;42.642;24.812;2022-12-07T06:11:46;14.43;;;5.53;;
5953;SDS011;3002;42.642;24.812;2022-12-07T06:14:30;20.17;;;5.43;;
5953;SDS011;3002;42.642;24.812;2022-12-07T06:16:56;17.70;;;5.10;;
5953;SDS011;3002;42.642;24.812;2022-12-07T06:19:21;14.53;;;5.60;;
5953;SDS011;3002;42.642;24.812;2022-12-07T06:21:47;13.50;;;3.43;;
5953;SDS011;3002;42.642;24.812;2022-12-07T06:24:13;22.77;;;7.53;;
5953;SDS011;3002;42.642;24.812;2022-12-07T06:26:40;18.00;;;5.17;;
5953;SDS011;3002;42.642;24.812;2022-12-07T06:29:06;14.83;;;3.90;;
5953;SDS011;3002;42.642;24.812;2022-12-07T06:31:31;17.40;;;4.80;;
5953;SDS011;3002;42.642;24.812;2022-12-07T06:33:58;25.23;;;5.23;;
5953;SDS011;3002;42.642;24.812;2022-12-07T06:36:24;12.03;;;4.60;;
5953;SDS011;3002;42.642;24.812;2022-12-07T06:38:50;14.60;;;5.23;;
5953;SDS011;3002;42.642;24.812;2022-12-07T06:41:15;14.63;;;4.30;;
5953;SDS011;3002;42.642;24.812;2022-12-07T06:43:40;28.03;;;6.47;;
5953;SDS011;3002;42.642;24.812;2022-12-07T06:46:07;19.60;;;5.57;;
5953;SDS011;3002;42.642;24.812;2022-12-07T06:48:33;15.13;;;5.67;;
5953;SDS011;3002;42.642;24.812;2022-12-07T06:50:58;20.27;;;6.90;;
5953;SDS011;3002;42.642;24.812;2022-12-07T06:53:24;46.13;;;8.27;;
5953;SDS011;3002;42.642;24.812;2022-12-07T06:55:49;21.50;;;7.83;;
5953;SDS011;3002;42.642;24.812;2022-12-07T06:58:15;25.80;;;8.50;;
5953;SDS011;3002;42.642;24.812;2022-12-07T07:00:41;22.03;;;10.70;;
5953;SDS011;3002;42.642;24.812;2022-12-07T07:03:07;27.20;;;9.00;;
5953;SDS011;3002;42.642;24.812;2022-12-07T07:05:32;24.23;;;10.30;;
5953;SDS011;3002;42.642;24.812;2022-12-07T07:07:58;54.90;;;13.40;;
5953;SDS011;3002;42.642;24.812;2022-12-07T07:10:23;63.37;;;13.83;;
5953;SDS011;3002;42.642;24.812;2022-12-07T07:12:49;26.93;;;12.03;;
5953;SDS011;3002;42.642;24.812;2022-12-07T07:15:14;25.80;;;10.03;;
5953;SDS011;3002;42.642;24.812;2022-12-07T07:17:40;29.03;;;9.50;;
5953;SDS011;3002;42.642;24.812;2022-12-07T07:20:05;36.67;;;13.67;;
5953;SDS011;3002;42.642;24.812;2022-12-07T07:22:31;39.13;;;9.90;;
5953;SDS011;3002;42.642;24.812;2022-12-07T07:24:57;35.27;;;13.67;;
5953;SDS011;3002;42.642;24.812;2022-12-07T07:27:22;32.80;;;14.10;;
5953;SDS011;3002;42.642;24.812;2022-12-07T07:29:47;121.37;;;30.93;;
5953;SDS011;3002;42.642;24.812;2022-12-07T07:32:13;196.50;;;37.27;;
5953;SDS011;3002;42.642;24.812;2022-12-07T07:34:39;200.90;;;41.10;;
5953;SDS011;3002;42.642;24.812;2022-12-07T07:37:06;74.97;;;17.40;;
5953;SDS011;3002;42.642;24.812;2022-12-07T07:39:31;39.20;;;13.80;;
5953;SDS011;3002;42.642;24.812;2022-12-07T07:41:57;36.00;;;13.20;;
5953;SDS011;3002;42.642;24.812;2022-12-07T07:44:22;36.77;;;13.30;;
5953;SDS011;3002;42.642;24.812;2022-12-07T07:46:48;24.43;;;11.67;;
5953;SDS011;3002;42.642;24.812;2022-12-07T07:49:13;35.83;;;11.00;;
5953;SDS011;3002;42.642;24.812;2022-12-07T07:51:38;28.93;;;8.93;;
5953;SDS011;3002;42.642;24.812;2022-12-07T07:54:04;39.87;;;9.97;;
5953;SDS011;3002;42.642;24.812;2022-12-07T07:56:30;21.00;;;9.77;;
5953;SDS011;3002;42.642;24.812;2022-12-07T07:58:55;37.07;;;10.13;;
5953;SDS011;3002;42.642;24.812;2022-12-07T08:01:22;27.07;;;8.77;;
5953;SDS011;3002;42.642;24.812;2022-12-07T08:03:48;25.67;;;9.20;;
5953;SDS011;3002;42.642;24.812;2022-12-07T08:06:14;24.80;;;7.97;;
5953;SDS011;3002;42.642;24.812;2022-12-07T08:08:40;19.13;;;7.50;;
5953;SDS011;3002;42.642;24.812;2022-12-07T08:11:07;19.17;;;6.77;;
5953;SDS011;3002;42.642;24.812;2022-12-07T08:13:34;37.23;;;8.03;;
5953;SDS011;3002;42.642;24.812;2022-12-07T08:16:04;31.80;;;8.00;;
5953;SDS011;3002;42.642;24.812;2022-12-07T08:18:34;22.90;;;7.90;;
5953;SDS011;3002;42.642;24.812;2022-12-07T08:21:01;22.33;;;6.27;;
5953;SDS011;3002;42.642;24.812;2022-12-07T08:23:28;16.57;;;8.10;;
5953;SDS011;3002;42.642;24.812;2022-12-07T08:25:53;24.63;;;8.10;;
5953;SDS011;3002;42.642;24.812;2022-12-07T08:28:19;28.43;;;8.33;;
5953;SDS011;3002;42.642;24.812;2022-12-07T08:30:44;25.80;;;10.60;;
5953;SDS011;3002;42.642;24.812;2022-12-07T08:33:10;26.60;;;8.00;;
5953;SDS011;3002;42.642;24.812;2022-12-07T08:35:36;26.23;;;7.33;;
5953;SDS011;3002;42.642;24.812;2022-12-07T08:38:01;68.60;;;40.47;;
5953;SDS011;3002;42.642;24.812;2022-12-07T08:40:27;23.77;;;10.83;;
5953;SDS011;3002;42.642;24.812;2022-12-07T08:42:53;21.97;;;9.07;;
5953;SDS011;3002;42.642;24.812;2022-12-07T08:45:21;19.47;;;7.20;;
5953;SDS011;3002;42.642;24.812;2022-12-07T08:48:06;19.50;;;6.17;;
5953;SDS011;3002;42.642;24.812;2022-12-07T08:50:36;24.17;;;9.67;;
5953;SDS011;3002;42.642;24.812;2022-12-07T08:53:02;20.57;;;7.57;;
5953;SDS011;3002;42.642;24.812;2022-12-07T08:55:30;15.20;;;5.80;;
5953;SDS011;3002;42.642;24.812;2022-12-07T08:57:57;33.63;;;10.37;;
5953;SDS011;3002;42.642;24.812;2022-12-07T09:00:24;33.97;;;10.10;;
5953;SDS011;3002;42.642;24.812;2022-12-07T09:02:50;46.53;;;12.07;;
5953;SDS011;3002;42.642;24.812;2022-12-07T09:05:16;36.47;;;8.63;;
5953;SDS011;3002;42.642;24.812;2022-12-07T09:07:42;28.33;;;9.13;;
5953;SDS011;3002;42.642;24.812;2022-12-07T09:10:10;21.43;;;7.70;;
5953;SDS011;3002;42.642;24.812;2022-12-07T09:12:36;30.07;;;8.90;;
5953;SDS011;3002;42.642;24.812;2022-12-07T09:15:01;35.70;;;10.53;;
5953;SDS011;3002;42.642;24.812;2022-12-07T09:17:27;44.70;;;15.10;;
5953;SDS011;3002;42.642;24.812;2022-12-07T09:19:56;31.90;;;11.67;;
5953;SDS011;3002;42.642;24.812;2022-12-07T09:22:22;22.53;;;8.10;;
5953;SDS011;3002;42.642;24.812;2022-12-07T09:24:47;35.17;;;9.50;;
5953;SDS011;3002;42.642;24.812;2022-12-07T09:27:13;23.13;;;8.47;;
5953;SDS011;3002;42.642;24.812;2022-12-07T09:29:38;31.43;;;10.60;;
5953;SDS011;3002;42.642;24.812;2022-12-07T09:32:04;30.77;;;7.13;;
5953;SDS011;3002;42.642;24.812;2022-12-07T09:34:31;24.60;;;6.50;;
5953;SDS011;3002;42.642;24.812;2022-12-07T09:36:57;24.37;;;7.40;;
5953;SDS011;3002;42.642;24.812;2022-12-07T09:39:22;31.17;;;8.40;;
5953;SDS011;3002;42.642;24.812;2022-12-07T09:41:48;23.13;;;6.73;;
5953;SDS011;3002;42.642;24.812;2022-12-07T09:44:18;17.80;;;5.27;;
5953;SDS011;3002;42.642;24.812;2022-12-07T09:46:48;25.77;;;8.20;;
5953;SDS011;3002;42.642;24.812;2022-12-07T09:49:25;19.83;;;7.73;;
5953;SDS011;3002;42.642;24.812;2022-12-07T09:54:39;17.67;;;5.80;;
5953;SDS011;3002;42.642;24.812;2022-12-07T09:57:10;18.27;;;6.30;;
5953;SDS011;3002;42.642;24.812;2022-12-07T09:59:37;26.40;;;6.40;;
5953;SDS011;3002;42.642;24.812;2022-12-07T10:05:56;22.13;;;5.60;;
5953;SDS011;3002;42.642;24.812;2022-12-07T10:08:02;20.17;;;7.20;;
5953;SDS011;3002;42.642;24.812;2022-12-07T10:10:31;20.60;;;6.60;;
5953;SDS011;3002;42.642;24.812;2022-12-07T10:15:40;35.40;;;9.07;;
5953;SDS011;3002;42.642;24.812;2022-12-07T10:18:37;28.63;;;8.00;;
5953;SDS011;3002;42.642;24.812;2022-12-07T10:23:34;31.07;;;10.50;;
5953;SDS011;3002;42.642;24.812;2022-12-07T10:28:52;31.97;;;8.37;;
5953;SDS011;3002;42.642;24.812;2022-12-07T10:31:19;40.67;;;9.97;;
5953;SDS011;3002;42.642;24.812;2022-12-07T10:39:00;24.20;;;8.90;;
5953;SDS011;3002;42.642;24.812;2022-12-07T10:41:35;30.67;;;8.20;;
5953;SDS011;3002;42.642;24.812;2022-12-07T10:44:20;27.53;;;8.10;;
5953;SDS011;3002;42.642;24.812;2022-12-07T11:00:20;34.10;;;10.63;;
5953;SDS011;3002;42.642;24.812;2022-12-07T11:14:16;31.27;;;10.27;;
5953;SDS011;3002;42.642;24.812;2022-12-07T11:16:57;31.87;;;10.97;;
5953;SDS011;3002;42.642;24.812;2022-12-07T11:22:43;24.20;;;8.70;;
5953;SDS011;3002;42.642;24.812;2022-12-07T11:25:23;30.07;;;9.70;;
5953;SDS011;3002;42.642;24.812;2022-12-07T11:33:21;31.43;;;8.43;;
5953;SDS011;3002;42.642;24.812;2022-12-07T11:39:11;28.97;;;7.20;;
5953;SDS011;3002;42.642;24.812;2022-12-07T11:41:44;41.97;;;7.93;;
5953;SDS011;3002;42.642;24.812;2022-12-07T11:49:54;34.37;;;8.57;;
5953;SDS011;3002;42.642;24.812;2022-12-07T11:52:27;30.00;;;8.43;;
5953;SDS011;3002;42.642;24.812;2022-12-07T11:55:54;21.63;;;7.87;;
5953;SDS011;3002;42.642;24.812;2022-12-07T11:58:18;27.30;;;9.00;;
5953;SDS011;3002;42.642;24.812;2022-12-07T12:03:52;37.70;;;9.10;;
5953;SDS011;3002;42.642;24.812;2022-12-07T12:06:22;35.83;;;9.50;;
5953;SDS011;3002;42.642;24.812;2022-12-07T12:12:14;25.90;;;9.00;;
5953;SDS011;3002;42.642;24.812;2022-12-07T12:14:57;23.10;;;8.40;;
5953;SDS011;3002;42.642;24.812;2022-12-07T12:17:35;19.93;;;7.97;;
5953;SDS011;3002;42.642;24.812;2022-12-07T12:20:19;33.17;;;11.00;;
5953;SDS011;3002;42.642;24.812;2022-12-07T12:23:01;47.73;;;13.50;;
5953;SDS011;3002;42.642;24.812;2022-12-07T12:25:47;70.80;;;20.20;;
5953;SDS011;3002;42.642;24.812;2022-12-07T12:28:21;53.07;;;17.00;;
5953;SDS011;3002;42.642;24.812;2022-12-07T12:31:09;33.37;;;10.67;;
5953;SDS011;3002;42.642;24.812;2022-12-07T12:33:57;30.03;;;8.70;;
5953;SDS011;3002;42.642;24.812;2022-12-07T12:50:21;53.53;;;15.53;;
5953;SDS011;3002;42.642;24.812;2022-12-07T12:53:00;39.30;;;12.40;;
5953;SDS011;3002;42.642;24.812;2022-12-07T12:58:28;43.37;;;14.87;;
5953;SDS011;3002;42.642;24.812;2022-12-07T13:03:56;31.10;;;11.70;;
5953;SDS011;3002;42.642;24.812;2022-12-07T13:08:51;20.00;;;7.53;;
5953;SDS011;3002;42.642;24.812;2022-12-07T13:11:40;26.90;;;7.77;;
5953;SDS011;3002;42.642;24.812;2022-12-07T13:17:04;28.60;;;8.00;;
5953;SDS011;3002;42.642;24.812;2022-12-07T13:20:06;39.37;;;15.13;;
5953;SDS011;3002;42.642;24.812;2022-12-07T13:30:53;18.97;;;5.73;;
5953;SDS011;3002;42.642;24.812;2022-12-07T13:33:30;25.23;;;9.13;;
5953;SDS011;3002;42.642;24.812;2022-12-07T13:35:59;21.80;;;6.13;;
5953;SDS011;3002;42.642;24.812;2022-12-07T13:38:27;25.87;;;9.03;;
5953;SDS011;3002;42.642;24.812;2022-12-07T13:41:02;42.20;;;12.60;;
5953;SDS011;3002;42.642;24.812;2022-12-07T13:43:44;29.10;;;8.73;;
5953;SDS011;3002;42.642;24.812;2022-12-07T13:46:13;18.57;;;6.17;;
5953;SDS011;3002;42.642;24.812;2022-12-07T13:48:46;20.13;;;7.03;;
5953;SDS011;3002;42.642;24.812;2022-12-07T13:53:53;26.53;;;7.70;;
5953;SDS011;3002;42.642;24.812;2022-12-07T13:56:27;28.70;;;8.33;;
5953;SDS011;3002;42.642;24.812;2022-12-07T13:58:58;28.37;;;8.03;;
5953;SDS011;3002;42.642;24.812;2022-12-07T14:01:25;18.10;;;7.00;;
5953;SDS011;3002;42.642;24.812;2022-12-07T14:03:51;21.43;;;6.47;;
5953;SDS011;3002;42.642;24.812;2022-12-07T14:06:24;13.33;;;6.07;;
5953;SDS011;3002;42.642;24.812;2022-12-07T14:11:47;18.03;;;7.80;;
5953;SDS011;3002;42.642;24.812;2022-12-07T14:14:16;17.13;;;5.93;;
5953;SDS011;3002;42.642;24.812;2022-12-07T14:16:54;14.27;;;5.60;;
5953;SDS011;3002;42.642;24.812;2022-12-07T14:19:45;27.30;;;8.30;;
5953;SDS011;3002;42.642;24.812;2022-12-07T14:25:09;19.53;;;6.97;;
5953;SDS011;3002;42.642;24.812;2022-12-07T14:27:53;21.30;;;6.93;;
5953;SDS011;3002;42.642;24.812;2022-12-07T14:30:21;24.17;;;8.07;;
5953;SDS011;3002;42.642;24.812;2022-12-07T14:32:50;22.57;;;7.50;;
5953;SDS011;3002;42.642;24.812;2022-12-07T14:35:18;12.90;;;4.30;;
5953;SDS011;3002;42.642;24.812;2022-12-07T14:37:46;24.33;;;7.90;;
5953;SDS011;3002;42.642;24.812;2022-12-07T14:40:13;18.47;;;7.00;;
5953;SDS011;3002;42.642;24.812;2022-12-07T14:42:41;22.53;;;7.30;;
5953;SDS011;3002;42.642;24.812;2022-12-07T14:45:12;27.60;;;13.20;;
5953;SDS011;3002;42.642;24.812;2022-12-07T14:47:43;27.33;;;10.10;;
5953;SDS011;3002;42.642;24.812;2022-12-07T14:50:11;20.20;;;6.93;;
5953;SDS011;3002;42.642;24.812;2022-12-07T14:52:38;32.37;;;9.07;;
5953;SDS011;3002;42.642;24.812;2022-12-07T14:55:04;30.93;;;8.20;;
5953;SDS011;3002;42.642;24.812;2022-12-07T14:57:37;28.53;;;8.33;;
5953;SDS011;3002;42.642;24.812;2022-12-07T15:00:09;54.90;;;9.27;;
5953;SDS011;3002;42.642;24.812;2022-12-07T15:02:39;30.27;;;9.50;;
5953;SDS011;3002;42.642;24.812;2022-12-07T15:05:04;13.67;;;5.43;;
5953;SDS011;3002;42.642;24.812;2022-12-07T15:07:30;18.70;;;6.00;;
5953;SDS011;3002;42.642;24.812;2022-12-07T15:09:55;10.87;;;5.00;;
5953;SDS011;3002;42.642;24.812;2022-12-07T15:12:21;21.17;;;6.57;;
5953;SDS011;3002;42.642;24.812;2022-12-07T15:14:46;28.73;;;9.10;;
5953;SDS011;3002;42.642;24.812;2022-12-07T15:17:12;20.37;;;6.87;;
5953;SDS011;3002;42.642;24.812;2022-12-07T15:19:38;17.70;;;5.90;;
5953;SDS011;3002;42.642;24.812;2022-12-07T15:22:04;25.20;;;6.77;;
5953;SDS011;3002;42.642;24.812;2022-12-07T15:24:29;12.47;;;6.07;;
5953;SDS011;3002;42.642;24.812;2022-12-07T15:26:55;12.70;;;5.10;;
5953;SDS011;3002;42.642;24.812;2022-12-07T15:29:20;19.70;;;7.37;;
5953;SDS011;3002;42.642;24.812;2022-12-07T15:31:47;17.90;;;7.30;;
5953;SDS011;3002;42.642;24.812;2022-12-07T15:34:13;13.53;;;4.00;;
5953;SDS011;3002;42.642;24.812;2022-12-07T15:36:39;19.80;;;4.97;;
5953;SDS011;3002;42.642;24.812;2022-12-07T15:39:04;14.27;;;4.93;;
5953;SDS011;3002;42.642;24.812;2022-12-07T15:41:30;13.67;;;4.23;;
5953;SDS011;3002;42.642;24.812;2022-12-07T15:43:56;20.67;;;5.83;;
5953;SDS011;3002;42.642;24.812;2022-12-07T15:46:40;10.10;;;3.43;;
5953;SDS011;3002;42.642;24.812;2022-12-07T15:49:14;13.20;;;4.77;;
5953;SDS011;3002;42.642;24.812;2022-12-07T15:51:42;12.20;;;7.50;;
5953;SDS011;3002;42.642;24.812;2022-12-07T15:54:27;28.70;;;9.10;;
5953;SDS011;3002;42.642;24.812;2022-12-07T15:56:54;21.37;;;8.80;;
5953;SDS011;3002;42.642;24.812;2022-12-07T15:59:23;57.77;;;10.47;;
5953;SDS011;3002;42.642;24.812;2022-12-07T16:01:49;28.33;;;8.97;;
5953;SDS011;3002;42.642;24.812;2022-12-07T16:04:14;47.47;;;13.70;;
5953;SDS011;3002;42.642;24.812;2022-12-07T16:06:40;51.43;;;18.10;;
5953;SDS011;3002;42.642;24.812;2022-12-07T16:09:05;61.63;;;17.13;;
5953;SDS011;3002;42.642;24.812;2022-12-07T16:11:31;46.77;;;12.83;;
5953;SDS011;3002;42.642;24.812;2022-12-07T16:13:57;21.73;;;5.67;;
5953;SDS011;3002;42.642;24.812;2022-12-07T16:19:11;13.80;;;4.13;;
5953;SDS011;3002;42.642;24.812;2022-12-07T16:21:36;17.83;;;5.50;;
5953;SDS011;3002;42.642;24.812;2022-12-07T16:24:02;18.90;;;7.17;;
5953;SDS011;3002;42.642;24.812;2022-12-07T16:26:30;25.67;;;7.37;;
5953;SDS011;3002;42.642;24.812;2022-12-07T16:28:56;20.27;;;5.70;;
5953;SDS011;3002;42.642;24.812;2022-12-07T16:31:22;14.67;;;4.97;;
5953;SDS011;3002;42.642;24.812;2022-12-07T16:33:50;15.60;;;5.40;;
5953;SDS011;3002;42.642;24.812;2022-12-07T16:36:19;21.13;;;6.10;;
5953;SDS011;3002;42.642;24.812;2022-12-07T16:38:47;18.40;;;7.53;;
5953;SDS011;3002;42.642;24.812;2022-12-07T16:41:13;23.53;;;7.47;;
5953;SDS011;3002;42.642;24.812;2022-12-07T16:43:38;20.27;;;4.40;;
5953;SDS011;3002;42.642;24.812;2022-12-07T16:46:04;17.97;;;6.80;;
5953;SDS011;3002;42.642;24.812;2022-12-07T16:48:30;18.17;;;7.70;;
5953;SDS011;3002;42.642;24.812;2022-12-07T16:50:56;29.97;;;9.77;;
5953;SDS011;3002;42.642;24.812;2022-12-07T16:53:23;30.17;;;8.77;;
5953;SDS011;3002;42.642;24.812;2022-12-07T16:55:49;35.17;;;9.57;;
5953;SDS011;3002;42.642;24.812;2022-12-07T16:58:16;30.67;;;11.10;;
5953;SDS011;3002;42.642;24.812;2022-12-07T17:00:42;35.17;;;12.90;;
5953;SDS011;3002;42.642;24.812;2022-12-07T17:03:09;28.63;;;8.40;;
5953;SDS011;3002;42.642;24.812;2022-12-07T17:05:39;28.70;;;9.80;;
5953;SDS011;3002;42.642;24.812;2022-12-07T17:08:05;17.13;;;4.40;;
5953;SDS011;3002;42.642;24.812;2022-12-07T17:10:30;12.40;;;3.63;;
5953;SDS011;3002;42.642;24.812;2022-12-07T17:12:58;16.57;;;5.20;;
5953;SDS011;3002;42.642;24.812;2022-12-07T17:15:24;16.23;;;4.70;;
5953;SDS011;3002;42.642;24.812;2022-12-07T17:17:53;29.13;;;7.30;;
5953;SDS011;3002;42.642;24.812;2022-12-07T17:20:22;22.13;;;6.30;;